createdAt,value
2018-05-07T00:00:45.342Z,19.70
2018-05-07T00:03:12.940Z,19.70
2018-05-07T00:05:40.582Z,19.70
2018-05-07T00:08:08.175Z,19.70
2018-05-07T00:10:35.798Z,19.60
2018-05-07T00:13:03.400Z,19.60
2018-05-07T00:15:31.046Z,19.50
2018-05-07T00:17:58.652Z,19.50
2018-05-07T00:20:26.237Z,19.40
2018-05-07T00:22:55.370Z,19.30
2018-05-07T00:25:24.867Z,19.30
2018-05-07T00:27:53.280Z,19.30
2018-05-07T00:30:20.870Z,19.20
2018-05-07T00:32:48.481Z,19.20
2018-05-07T00:35:16.066Z,19.20
2018-05-07T00:37:43.699Z,19.10
2018-05-07T00:40:11.282Z,19.10
2018-05-07T00:42:38.900Z,19.00
2018-05-07T00:45:07.250Z,19.00
2018-05-07T00:47:34.837Z,18.90
2018-05-07T00:50:03.214Z,18.90
2018-05-07T00:52:31.568Z,18.90
2018-05-07T00:55:11.075Z,18.80
2018-05-07T00:57:38.671Z,18.80
2018-05-07T01:00:06.299Z,18.80
2018-05-07T01:02:33.886Z,18.80
2018-05-07T01:05:01.503Z,18.70
2018-05-07T01:07:29.095Z,18.70
2018-05-07T01:09:56.733Z,18.60
2018-05-07T01:12:24.337Z,18.50
2018-05-07T01:14:51.947Z,18.60
2018-05-07T01:17:19.531Z,18.50
2018-05-07T01:19:47.148Z,18.60
2018-05-07T01:22:15.498Z,18.50
2018-05-07T01:24:43.110Z,18.50
2018-05-07T01:27:10.694Z,18.50
2018-05-07T01:29:38.317Z,18.40
2018-05-07T01:32:05.923Z,18.40
2018-05-07T01:34:33.542Z,18.40
2018-05-07T01:37:01.142Z,18.30
2018-05-07T01:39:28.754Z,18.20
2018-05-07T01:41:57.108Z,18.20
2018-05-07T01:44:24.694Z,18.20
2018-05-07T01:46:53.076Z,18.20
2018-05-07T01:49:21.422Z,18.20
2018-05-07T01:51:49.030Z,18.10
2018-05-07T01:54:16.618Z,18.10
2018-05-07T01:56:44.225Z,18.10
2018-05-07T01:59:12.595Z,18.00
2018-05-07T02:01:40.978Z,18.00
2018-05-07T02:04:09.335Z,18.00
2018-05-07T02:06:36.956Z,17.90
2018-05-07T02:09:05.307Z,17.90
2018-05-07T02:11:33.692Z,17.90
2018-05-07T02:14:01.278Z,17.80
2018-05-07T02:16:28.899Z,17.80
2018-05-07T02:18:57.254Z,17.80
2018-05-07T02:21:24.862Z,17.70
2018-05-07T02:23:52.457Z,17.80
2018-05-07T02:26:20.086Z,17.70
2018-05-07T02:28:47.676Z,17.70
2018-05-07T02:31:15.315Z,17.70
2018-05-07T02:33:42.901Z,17.70
2018-05-07T02:36:10.527Z,17.70
2018-05-07T02:38:38.121Z,17.70
2018-05-07T02:41:05.736Z,17.60
2018-05-07T02:43:33.331Z,17.60
2018-05-07T02:46:00.953Z,17.60
2018-05-07T02:48:29.311Z,17.60
2018-05-07T02:50:57.692Z,17.50
2018-05-07T02:53:26.079Z,17.50
2018-05-07T02:55:54.426Z,17.50
2018-05-07T02:58:22.066Z,17.40
2018-05-07T03:00:49.650Z,17.50
2018-05-07T03:03:17.263Z,17.40
2018-05-07T03:05:44.851Z,17.40
2018-05-07T03:08:12.460Z,17.40
2018-05-07T03:10:40.823Z,17.40
2018-05-07T03:13:08.438Z,17.30
2018-05-07T03:15:36.070Z,17.40
2018-05-07T03:18:04.447Z,17.30
2018-05-07T03:20:32.793Z,17.30
2018-05-07T03:23:00.402Z,17.30
2018-05-07T03:25:28.002Z,17.30
2018-05-07T03:27:55.617Z,17.30
2018-05-07T03:30:23.201Z,17.30
2018-05-07T03:32:50.810Z,17.30
2018-05-07T03:35:18.399Z,17.30
2018-05-07T03:37:46.005Z,17.20
2018-05-07T03:40:13.590Z,17.20
2018-05-07T03:42:41.222Z,17.20
2018-05-07T03:45:08.811Z,17.20
2018-05-07T03:47:37.906Z,17.10
2018-05-07T03:50:05.518Z,17.10
2018-05-07T03:52:33.109Z,17.20
2018-05-07T03:55:00.717Z,17.10
2018-05-07T03:57:28.306Z,17.10
2018-05-07T03:59:55.926Z,17.10
2018-05-07T04:02:24.282Z,17.10
2018-05-07T04:04:51.900Z,17.00
2018-05-07T04:07:19.510Z,17.00
2018-05-07T04:09:47.902Z,17.00
2018-05-07T04:12:16.260Z,17.00
2018-05-07T04:14:43.873Z,16.90
2018-05-07T04:17:26.218Z,17.00
2018-05-07T04:20:05.762Z,17.00
2018-05-07T04:25:33.985Z,16.90
2018-05-07T04:28:02.359Z,16.90
2018-05-07T04:30:30.735Z,16.90
2018-05-07T04:32:59.090Z,16.90
2018-05-07T04:35:26.712Z,16.90
2018-05-07T04:37:54.306Z,16.90
2018-05-07T04:40:21.901Z,16.90
2018-05-07T04:42:50.292Z,16.90
2018-05-07T04:45:18.651Z,16.90
2018-05-07T04:47:47.034Z,16.90
2018-05-07T04:50:15.387Z,16.90
2018-05-07T04:52:43.006Z,16.80
2018-05-07T04:55:10.650Z,16.90
2018-05-07T04:57:38.248Z,16.90
2018-05-07T05:00:05.843Z,16.90
2018-05-07T05:02:33.453Z,17.00
2018-05-07T05:05:01.047Z,17.00
2018-05-07T05:07:28.664Z,17.10
2018-05-07T05:09:56.262Z,17.10
2018-05-07T05:12:23.878Z,17.10
2018-05-07T05:14:51.477Z,17.20
2018-05-07T05:17:19.095Z,17.20
2018-05-07T05:19:47.449Z,17.30
2018-05-07T05:22:15.071Z,17.20
2018-05-07T05:24:42.656Z,17.30
2018-05-07T05:27:10.278Z,17.40
2018-05-07T05:29:37.865Z,17.40
2018-05-07T05:32:05.484Z,17.40
2018-05-07T05:34:33.168Z,17.50
2018-05-07T05:37:00.799Z,17.60
2018-05-07T05:39:29.155Z,17.70
2018-05-07T05:41:57.535Z,17.80
2018-05-07T05:44:25.918Z,17.90
2018-05-07T05:46:53.515Z,17.80
2018-05-07T05:49:21.135Z,18.00
2018-05-07T05:51:48.727Z,18.10
2018-05-07T05:54:16.537Z,18.20
2018-05-07T05:56:44.158Z,18.30
2018-05-07T05:59:11.790Z,18.40
2018-05-07T06:01:40.146Z,18.50
2018-05-07T06:04:07.730Z,18.50
2018-05-07T06:06:36.109Z,18.80
2018-05-07T06:09:07.136Z,18.90
2018-05-07T06:11:34.759Z,18.80
2018-05-07T06:14:02.353Z,18.90
2018-05-07T06:16:29.978Z,19.10
2018-05-07T06:18:57.561Z,19.30
2018-05-07T06:21:26.016Z,19.70
2018-05-07T06:23:53.609Z,19.60
2018-05-07T06:26:21.235Z,19.80
2018-05-07T06:28:48.829Z,19.80
2018-05-07T06:31:16.580Z,19.90
2018-05-07T06:33:44.190Z,19.90
2018-05-07T06:36:12.632Z,20.10
2018-05-07T06:38:41.778Z,20.20
2018-05-07T06:41:09.374Z,20.20
2018-05-07T06:43:36.995Z,20.40
2018-05-07T06:46:04.684Z,20.50
2018-05-07T06:48:32.253Z,20.50
2018-05-07T06:50:59.843Z,20.60
2018-05-07T06:53:27.443Z,20.60
2018-05-07T06:55:55.078Z,20.60
2018-05-07T06:58:23.430Z,20.70
2018-05-07T07:00:51.051Z,20.70
2018-05-07T07:03:18.643Z,20.80
2018-05-07T07:05:46.258Z,20.90
2018-05-07T07:08:14.679Z,21.20
2018-05-07T07:10:42.278Z,21.20
2018-05-07T07:13:10.678Z,21.50
2018-05-07T07:15:39.070Z,21.50
2018-05-07T07:18:06.789Z,21.50
2018-05-07T07:20:34.372Z,21.70
2018-05-07T07:23:02.746Z,21.80
2018-05-07T07:25:31.107Z,21.80
2018-05-07T07:27:59.583Z,21.90
2018-05-07T07:30:27.865Z,21.90
2018-05-07T07:32:55.496Z,21.80
2018-05-07T07:35:23.086Z,21.90
2018-05-07T07:37:50.673Z,21.80
2018-05-07T07:40:19.058Z,21.90
2018-05-07T07:42:47.410Z,22.10
2018-05-07T07:45:16.528Z,22.10
2018-05-07T07:47:44.878Z,22.30
2018-05-07T07:50:13.277Z,22.40
2018-05-07T07:52:41.643Z,22.50
2018-05-07T07:55:09.251Z,22.40
2018-05-07T07:57:36.852Z,22.60
2018-05-07T08:00:04.471Z,22.70
2018-05-07T08:02:32.070Z,22.80
2018-05-07T08:04:59.935Z,22.90
2018-05-07T08:07:27.794Z,23.00
2018-05-07T08:09:55.384Z,23.10
2018-05-07T08:12:23.022Z,23.30
2018-05-07T08:14:50.615Z,23.40
2018-05-07T08:17:19.000Z,23.80
2018-05-07T08:19:47.354Z,23.90
2018-05-07T08:22:15.115Z,23.80
2018-05-07T08:24:42.740Z,23.90
2018-05-07T08:27:10.426Z,24.10
2018-05-07T08:29:38.018Z,24.10
2018-05-07T08:32:06.378Z,24.40
2018-05-07T08:34:35.502Z,24.60
2018-05-07T08:37:03.854Z,24.70
2018-05-07T08:39:31.480Z,24.60
2018-05-07T08:41:59.078Z,24.80
2018-05-07T08:44:26.693Z,25.00
2018-05-07T08:46:54.293Z,25.10
2018-05-07T08:49:21.887Z,25.20
2018-05-07T08:51:49.502Z,25.30
2018-05-07T08:54:17.191Z,25.40
2018-05-07T08:56:44.832Z,25.50
2018-05-07T08:59:12.418Z,25.50
2018-05-07T09:01:40.801Z,25.80
2018-05-07T09:04:09.159Z,26.00
2018-05-07T09:06:36.774Z,25.90
2018-05-07T09:09:04.371Z,26.10
2018-05-07T09:11:32.134Z,26.20
2018-05-07T09:13:59.776Z,26.30
2018-05-07T09:16:27.574Z,26.30
2018-05-07T09:18:55.159Z,26.30
2018-05-07T09:21:23.547Z,26.40
2018-05-07T09:23:51.135Z,26.40
2018-05-07T09:26:18.753Z,26.50
2018-05-07T09:28:47.097Z,26.70
2018-05-07T09:31:14.689Z,26.70
2018-05-07T09:33:43.075Z,26.90
2018-05-07T09:36:11.495Z,27.00
2018-05-07T09:38:39.131Z,26.90
2018-05-07T09:41:06.722Z,27.00
2018-05-07T09:43:34.311Z,27.00
2018-05-07T09:46:02.698Z,27.20
2018-05-07T09:48:30.299Z,27.10
2018-05-07T09:50:57.914Z,27.30
2018-05-07T09:53:27.014Z,27.30
2018-05-07T09:55:54.634Z,27.30
2018-05-07T09:58:22.225Z,27.40
2018-05-07T10:00:49.838Z,27.50
2018-05-07T10:03:17.426Z,27.60
2018-05-07T10:05:45.042Z,27.60
2018-05-07T10:08:12.639Z,27.70
2018-05-07T10:10:40.255Z,27.80
2018-05-07T10:13:08.615Z,28.00
2018-05-07T10:15:36.197Z,27.90
2018-05-07T10:18:03.819Z,28.00
2018-05-07T10:20:31.406Z,28.10
2018-05-07T10:22:59.783Z,28.30
2018-05-07T10:25:28.142Z,28.40
2018-05-07T10:27:56.514Z,28.50
2018-05-07T10:30:24.106Z,28.40
2018-05-07T10:32:52.494Z,28.60
2018-05-07T10:35:20.940Z,28.80
2018-05-07T10:37:48.457Z,28.70
2018-05-07T10:40:16.073Z,28.90
2018-05-07T10:42:43.738Z,29.00
2018-05-07T10:45:11.342Z,29.10
2018-05-07T10:47:39.026Z,29.10
2018-05-07T10:50:06.686Z,29.20
2018-05-07T10:52:34.281Z,29.30
2018-05-07T10:55:01.899Z,29.30
2018-05-07T10:57:29.506Z,29.40
2018-05-07T10:59:57.133Z,29.50
2018-05-07T11:02:25.493Z,29.70
2018-05-07T11:04:53.078Z,29.60
2018-05-07T11:07:20.761Z,29.70
2018-05-07T11:09:48.314Z,29.80
2018-05-07T11:12:15.925Z,29.80
2018-05-07T11:14:43.520Z,29.90
2018-05-07T11:17:11.130Z,29.90
2018-05-07T11:19:38.902Z,29.90
2018-05-07T11:22:07.270Z,30.00
2018-05-07T11:24:35.662Z,30.10
2018-05-07T11:27:03.294Z,30.00
2018-05-07T11:29:31.651Z,30.10
2018-05-07T11:31:59.238Z,30.10
2018-05-07T11:34:27.618Z,30.20
2018-05-07T11:36:56.062Z,30.30
2018-05-07T11:39:23.678Z,30.30
2018-05-07T11:41:51.411Z,30.40
2018-05-07T11:44:19.809Z,30.60
2018-05-07T11:46:48.163Z,30.70
2018-05-07T11:49:15.754Z,30.60
2018-05-07T11:51:43.371Z,30.70
2018-05-07T11:54:10.960Z,30.80
2018-05-07T11:56:39.348Z,30.90
2018-05-07T11:59:07.804Z,31.00
2018-05-07T12:01:35.419Z,31.00
2018-05-07T12:04:03.015Z,31.10
2018-05-07T12:06:31.402Z,31.10
2018-05-07T12:08:59.068Z,31.00
2018-05-07T12:11:26.636Z,31.10
2018-05-07T12:13:55.000Z,31.20
2018-05-07T12:16:22.594Z,31.10
2018-05-07T12:18:50.978Z,31.20
2018-05-07T12:21:18.721Z,31.10
2018-05-07T12:23:47.102Z,31.20
2018-05-07T12:26:15.462Z,31.30
2018-05-07T12:28:43.082Z,31.20
2018-05-07T12:31:10.727Z,31.20
2018-05-07T12:33:38.394Z,31.20
2018-05-07T12:36:05.980Z,31.30
2018-05-07T12:38:33.641Z,31.20
2018-05-07T12:41:01.259Z,31.30
2018-05-07T12:43:28.849Z,31.40
2018-05-07T12:45:56.498Z,31.40
2018-05-07T12:48:24.090Z,31.50
2018-05-07T12:50:51.702Z,31.50
2018-05-07T12:53:20.054Z,31.50
2018-05-07T12:55:47.682Z,31.50
2018-05-07T12:58:15.267Z,31.50
2018-05-07T13:00:42.854Z,31.60
2018-05-07T13:03:11.225Z,31.50
2018-05-07T13:05:39.587Z,31.50
2018-05-07T13:08:07.201Z,31.50
2018-05-07T13:10:34.790Z,31.50
2018-05-07T13:13:02.415Z,31.50
2018-05-07T13:15:30.007Z,31.40
2018-05-07T13:17:57.651Z,31.40
2018-05-07T13:20:25.261Z,31.40
2018-05-07T13:22:52.885Z,31.40
2018-05-07T13:25:20.482Z,31.40
2018-05-07T13:27:48.078Z,31.30
2018-05-07T13:30:15.702Z,31.30
2018-05-07T13:32:43.302Z,31.30
2018-05-07T13:35:10.921Z,31.30
2018-05-07T13:37:38.513Z,31.30
2018-05-07T13:40:06.126Z,31.20
2018-05-07T13:42:33.723Z,31.20
2018-05-07T13:45:02.109Z,31.10
2018-05-07T13:47:29.703Z,31.10
2018-05-07T13:49:57.294Z,31.10
2018-05-07T13:52:26.419Z,31.00
2018-05-07T13:54:54.786Z,31.10
2018-05-07T13:57:22.407Z,31.00
2018-05-07T13:59:50.040Z,31.00
2018-05-07T14:02:17.730Z,30.90
2018-05-07T14:04:45.330Z,30.90
2018-05-07T14:07:12.937Z,30.70
2018-05-07T14:09:40.520Z,30.70
2018-05-07T14:12:09.629Z,30.70
2018-05-07T14:14:37.456Z,30.60
2018-05-07T14:17:05.037Z,30.60
2018-05-07T14:19:32.655Z,30.50
2018-05-07T14:22:00.878Z,30.50
2018-05-07T14:24:29.390Z,30.40
2018-05-07T14:26:56.982Z,30.30
2018-05-07T14:29:24.570Z,30.20
2018-05-07T14:31:52.180Z,30.10
2018-05-07T14:34:20.538Z,30.10
2018-05-07T14:36:48.208Z,30.00
2018-05-07T14:39:15.818Z,30.00
2018-05-07T14:41:43.435Z,30.00
2018-05-07T14:44:11.022Z,29.80
2018-05-07T14:46:38.638Z,29.80
2018-05-07T14:49:06.228Z,29.80
2018-05-07T14:51:34.610Z,29.70
2018-05-07T14:54:02.958Z,29.60
2018-05-07T14:56:30.577Z,29.50
2018-05-07T14:58:58.178Z,29.50
2018-05-07T15:01:26.688Z,29.30
2018-05-07T15:03:55.078Z,29.30
2018-05-07T15:06:22.718Z,29.20
2018-05-07T15:08:50.347Z,29.20
2018-05-07T15:11:18.012Z,29.10
2018-05-07T15:13:45.650Z,29.00
2018-05-07T15:16:13.242Z,29.00
2018-05-07T15:18:40.849Z,28.90
2018-05-07T15:21:08.462Z,28.80
2018-05-07T15:23:36.061Z,28.70
2018-05-07T15:26:04.443Z,28.50
2018-05-07T15:28:32.798Z,28.40
2018-05-07T15:31:00.415Z,28.30
2018-05-07T15:33:28.018Z,28.30
2018-05-07T15:35:55.642Z,28.20
2018-05-07T15:38:23.230Z,28.20
2018-05-07T15:40:50.813Z,28.10
2018-05-07T15:43:19.241Z,27.80
2018-05-07T15:45:46.825Z,27.80
2018-05-07T15:48:14.442Z,27.80
2018-05-07T15:50:42.033Z,27.80
2018-05-07T15:53:09.651Z,27.80
2018-05-07T15:55:37.256Z,27.80
2018-05-07T15:58:04.894Z,27.70
2018-05-07T16:00:32.473Z,27.60
2018-05-07T16:03:00.097Z,27.50
2018-05-07T16:05:27.828Z,27.50
2018-05-07T16:07:55.676Z,27.60
2018-05-07T16:10:23.320Z,27.50
2018-05-07T16:12:50.943Z,27.50
2018-05-07T16:15:18.646Z,27.50
2018-05-07T16:17:46.167Z,27.40
2018-05-07T16:20:13.759Z,27.40
2018-05-07T16:22:41.378Z,27.30
2018-05-07T16:25:09.737Z,27.40
2018-05-07T16:27:37.324Z,27.30
2018-05-07T16:30:05.712Z,27.40
2018-05-07T16:32:33.317Z,27.30
2018-05-07T16:35:00.947Z,27.40
2018-05-07T16:37:28.534Z,27.40
2018-05-07T16:39:56.918Z,27.20
2018-05-07T16:42:24.533Z,27.20
2018-05-07T16:44:52.158Z,27.20
2018-05-07T16:47:19.746Z,27.20
2018-05-07T16:49:48.282Z,27.00
2018-05-07T16:52:15.907Z,26.90
2018-05-07T16:54:43.495Z,26.90
2018-05-07T16:57:11.073Z,26.90
2018-05-07T16:59:38.832Z,26.90
2018-05-07T17:02:06.423Z,26.90
2018-05-07T17:04:34.814Z,26.80
2018-05-07T17:07:02.398Z,26.70
2018-05-07T17:09:30.020Z,26.70
2018-05-07T17:11:58.370Z,26.70
2018-05-07T17:14:25.958Z,26.70
2018-05-07T17:16:54.340Z,26.70
2018-05-07T17:19:22.700Z,26.70
2018-05-07T17:21:50.318Z,26.60
2018-05-07T17:24:17.912Z,26.70
2018-05-07T17:26:47.088Z,26.60
2018-05-07T17:29:14.690Z,26.60
2018-05-07T17:31:43.087Z,26.60
2018-05-07T17:34:11.443Z,26.60
2018-05-07T17:36:39.838Z,26.50
2018-05-07T17:39:08.201Z,26.40
2018-05-07T17:41:35.791Z,26.40
2018-05-07T17:44:15.363Z,26.50
2018-05-07T17:46:54.722Z,26.40
2018-05-07T17:49:22.334Z,26.40
2018-05-07T17:51:50.043Z,26.40
2018-05-07T17:54:17.659Z,26.40
2018-05-07T17:56:45.267Z,26.30
2018-05-07T17:59:13.037Z,26.30
2018-05-07T18:01:40.622Z,26.20
2018-05-07T18:04:08.997Z,26.20
2018-05-07T18:06:37.345Z,26.10
2018-05-07T18:09:04.967Z,26.10
2018-05-07T18:11:32.554Z,26.10
2018-05-07T18:14:00.170Z,26.10
2018-05-07T18:16:27.767Z,26.10
2018-05-07T18:18:55.378Z,26.10
2018-05-07T18:21:23.727Z,26.10
2018-05-07T18:23:51.375Z,26.00
2018-05-07T18:26:18.962Z,26.00
2018-05-07T18:28:46.547Z,26.00
2018-05-07T18:31:14.923Z,26.00
2018-05-07T18:33:43.287Z,25.90
2018-05-07T18:36:11.026Z,25.90
2018-05-07T18:38:38.528Z,25.80
2018-05-07T18:41:06.923Z,25.80
2018-05-07T18:43:34.507Z,25.80
2018-05-07T18:46:02.123Z,25.80
2018-05-07T18:48:30.474Z,25.80
2018-05-07T18:50:58.094Z,25.70
2018-05-07T18:53:25.678Z,25.70
2018-05-07T18:55:53.290Z,25.60
2018-05-07T18:58:21.637Z,25.60
2018-05-07T19:00:49.254Z,25.50
2018-05-07T19:03:16.846Z,25.50
2018-05-07T19:05:44.431Z,25.40
2018-05-07T19:08:12.051Z,25.40
2018-05-07T19:10:39.651Z,25.30
2018-05-07T19:13:07.316Z,25.20
2018-05-07T19:15:34.887Z,25.10
2018-05-07T19:18:03.272Z,25.00
2018-05-07T19:20:31.630Z,24.90
2018-05-07T19:22:59.243Z,24.90
2018-05-07T19:25:26.866Z,24.80
2018-05-07T19:27:55.291Z,24.80
2018-05-07T19:30:22.879Z,24.70
2018-05-07T19:32:52.901Z,24.70
2018-05-07T19:35:22.688Z,24.60
2018-05-07T19:37:50.438Z,24.60
2018-05-07T19:40:18.750Z,24.40
2018-05-07T19:42:48.250Z,24.30
2018-05-07T19:45:16.660Z,24.30
2018-05-07T19:47:45.015Z,24.20
2018-05-07T19:50:12.634Z,24.20
2018-05-07T19:52:40.230Z,24.10
2018-05-07T19:55:07.855Z,24.10
2018-05-07T19:57:35.454Z,24.00
2018-05-07T20:00:03.078Z,24.00
2018-05-07T20:02:30.667Z,23.90
2018-05-07T20:04:58.294Z,23.80
2018-05-07T20:07:25.882Z,23.80
2018-05-07T20:09:53.498Z,23.70
2018-05-07T20:12:21.176Z,23.60
2018-05-07T20:14:48.701Z,23.50
2018-05-07T20:17:17.090Z,23.40
2018-05-07T20:19:45.442Z,23.40
2018-05-07T20:22:13.054Z,23.30
2018-05-07T20:24:40.651Z,23.30
2018-05-07T20:27:10.701Z,23.30
2018-05-07T20:29:38.434Z,23.20
2018-05-07T20:32:06.051Z,23.10
2018-05-07T20:34:33.647Z,23.10
2018-05-07T20:37:01.267Z,23.00
2018-05-07T20:39:29.625Z,22.90
2018-05-07T20:41:57.974Z,22.90
2018-05-07T20:44:25.593Z,22.80
2018-05-07T20:46:53.179Z,22.90
2018-05-07T20:49:20.798Z,22.90
2018-05-07T20:51:48.929Z,22.80
2018-05-07T20:54:16.555Z,22.70
2018-05-07T20:56:44.278Z,22.60
2018-05-07T20:59:12.748Z,22.50
2018-05-07T21:01:40.306Z,22.40
2018-05-07T21:04:07.897Z,22.40
2018-05-07T21:06:35.542Z,22.40
2018-05-07T21:09:04.127Z,22.30
2018-05-07T21:11:32.508Z,22.30
2018-05-07T21:14:00.866Z,22.20
2018-05-07T21:16:29.994Z,22.10
2018-05-07T21:18:58.351Z,22.10
2018-05-07T21:21:25.963Z,22.10
2018-05-07T21:23:53.635Z,22.10
2018-05-07T21:26:21.274Z,22.00
2018-05-07T21:28:48.858Z,22.00
2018-05-07T21:31:16.468Z,22.00
2018-05-07T21:33:44.825Z,21.90
2018-05-07T21:36:13.210Z,21.80
2018-05-07T21:38:40.806Z,21.70
2018-05-07T21:41:08.440Z,21.70
2018-05-07T21:43:36.848Z,21.60
2018-05-07T21:46:05.189Z,21.60
2018-05-07T21:48:32.806Z,21.50
2018-05-07T21:51:00.390Z,21.50
2018-05-07T21:53:28.005Z,21.50
2018-05-07T21:55:55.590Z,21.50
2018-05-07T21:58:23.207Z,21.40
2018-05-07T22:00:51.563Z,21.40
2018-05-07T22:03:20.698Z,21.30
2018-05-07T22:05:48.294Z,21.30
2018-05-07T22:08:15.882Z,21.30
2018-05-07T22:10:45.032Z,21.20
2018-05-07T22:13:12.617Z,21.20
2018-05-07T22:15:40.211Z,21.20
2018-05-07T22:18:08.602Z,21.10
2018-05-07T22:20:36.966Z,21.10
2018-05-07T22:23:04.583Z,21.10
2018-05-07T22:25:32.171Z,21.10
2018-05-07T22:27:59.787Z,21.10
2018-05-07T22:30:27.369Z,21.00
2018-05-07T22:32:54.978Z,21.00
2018-05-07T22:35:23.337Z,20.90
2018-05-07T22:37:50.969Z,20.90
2018-05-07T22:40:18.563Z,20.90
2018-05-07T22:42:47.817Z,20.80
2018-05-07T22:45:15.426Z,20.70
2018-05-07T22:47:43.785Z,20.70
2018-05-07T22:50:11.408Z,20.60
2018-05-07T22:52:38.994Z,20.60
2018-05-07T22:55:07.404Z,20.60
2018-05-07T22:57:34.990Z,20.50
2018-05-07T23:00:03.362Z,20.50
2018-05-07T23:02:31.710Z,20.50
2018-05-07T23:04:59.338Z,20.40
2018-05-07T23:07:26.926Z,20.40
2018-05-07T23:09:54.564Z,20.40
2018-05-07T23:12:22.150Z,20.30
2018-05-07T23:14:49.840Z,20.30
2018-05-07T23:17:17.391Z,20.20
2018-05-07T23:19:44.975Z,20.20
2018-05-07T23:22:12.596Z,20.20
2018-05-07T23:24:40.181Z,20.10
2018-05-07T23:27:08.534Z,20.10
2018-05-07T23:29:36.179Z,20.10
2018-05-07T23:32:03.773Z,20.10
2018-05-07T23:34:32.132Z,20.00
2018-05-07T23:36:59.747Z,19.90
2018-05-07T23:39:27.335Z,19.90
2018-05-07T23:41:54.962Z,19.90
2018-05-07T23:44:22.552Z,19.80
2018-05-07T23:46:50.133Z,19.80
2018-05-07T23:49:17.749Z,19.80
2018-05-07T23:51:45.341Z,19.80
2018-05-07T23:54:12.935Z,19.80
2018-05-07T23:56:40.551Z,19.80
2018-05-07T23:59:08.138Z,19.70
